NC74 weather

Randolph Hospital Heliport
Asheboro, North Carolina, United States

Public forecast

Using degrees Fahrenheit for public forecast. Weather courtesy of forecast.io.

METAR (pilot weather report)

Closest report is Asheboro Regional Airport, 5.1 nm (9.5 km) SW. Retrieved 2019/07/23 00:25 UTC (11 minutes ago):

KHBI 230025Z AUTO 00000KT 10SM SCT070 SCT095 27/21 A2995 RMK AO2 T02680212

TAF (pilot weather forecast)

Closest forecast is Piedmont Triad International Airport, 24.0 nm (44.4 km) NNW. Retrieved 2019/07/23 00:00 UTC (36 minutes ago):

TAF KGSO 222337Z 2300/2324 22008G18KT P6SM VCTS SCT040CB BKN130 TEMPO 2300/2303 29020G35KT 1SM +TSRA BR BKN025CB OVC070 FM230400 23005KT P6SM SCT015 BKN040 BKN090 FM230900 20009KT P6SM BKN050 FM231400 36005KT 5SM -SHRA BR OVC015 FM231700 01007KT 1 1/2SM -SHRA BR OVC007